sensor_id;sensor_type;location;lat;lon;timestamp;temperature;humidity
24744;DHT22;12844;52.110;5.548;2024-03-17T00:01:02;17.80;57.40
24744;DHT22;12844;52.110;5.548;2024-03-17T00:03:28;17.80;57.40
24744;DHT22;12844;52.110;5.548;2024-03-17T00:05:58;17.80;57.40
24744;DHT22;12844;52.110;5.548;2024-03-17T00:08:24;17.90;57.50
24744;DHT22;12844;52.110;5.548;2024-03-17T00:10:51;17.90;57.40
24744;DHT22;12844;52.110;5.548;2024-03-17T00:13:17;17.90;57.40
24744;DHT22;12844;52.110;5.548;2024-03-17T00:15:43;17.80;57.40
24744;DHT22;12844;52.110;5.548;2024-03-17T00:18:09;17.80;57.40
24744;DHT22;12844;52.110;5.548;2024-03-17T00:20:39;17.80;57.40
24744;DHT22;12844;52.110;5.548;2024-03-17T00:23:04;17.80;57.40
24744;DHT22;12844;52.110;5.548;2024-03-17T00:25:35;17.80;57.40
24744;DHT22;12844;52.110;5.548;2024-03-17T00:28:01;17.80;57.40
24744;DHT22;12844;52.110;5.548;2024-03-17T00:30:27;17.80;57.40
24744;DHT22;12844;52.110;5.548;2024-03-17T00:32:53;17.80;57.40
24744;DHT22;12844;52.110;5.548;2024-03-17T00:35:18;17.80;57.40
24744;DHT22;12844;52.110;5.548;2024-03-17T00:37:48;17.80;57.40
24744;DHT22;12844;52.110;5.548;2024-03-17T00:40:14;17.80;57.40
24744;DHT22;12844;52.110;5.548;2024-03-17T00:42:40;17.80;57.40
24744;DHT22;12844;52.110;5.548;2024-03-17T00:45:06;17.80;58.10
24744;DHT22;12844;52.110;5.548;2024-03-17T00:47:32;17.80;57.40
24744;DHT22;12844;52.110;5.548;2024-03-17T00:49:58;17.80;57.40
24744;DHT22;12844;52.110;5.548;2024-03-17T00:52:24;17.80;57.50
24744;DHT22;12844;52.110;5.548;2024-03-17T00:54:49;17.80;57.40
24744;DHT22;12844;52.110;5.548;2024-03-17T00:57:15;17.80;57.40
24744;DHT22;12844;52.110;5.548;2024-03-17T00:59:42;17.70;57.30
24744;DHT22;12844;52.110;5.548;2024-03-17T01:02:10;17.80;57.40
24744;DHT22;12844;52.110;5.548;2024-03-17T01:04:39;17.70;57.40
24744;DHT22;12844;52.110;5.548;2024-03-17T01:07:05;17.70;58.00
24744;DHT22;12844;52.110;5.548;2024-03-17T01:09:30;17.70;57.40
24744;DHT22;12844;52.110;5.548;2024-03-17T01:11:56;17.70;57.40
24744;DHT22;12844;52.110;5.548;2024-03-17T01:14:21;17.70;57.40
24744;DHT22;12844;52.110;5.548;2024-03-17T01:16:47;17.70;58.00
24744;DHT22;12844;52.110;5.548;2024-03-17T01:19:12;17.70;58.00
24744;DHT22;12844;52.110;5.548;2024-03-17T01:21:38;17.70;57.40
24744;DHT22;12844;52.110;5.548;2024-03-17T01:24:04;17.70;57.40
24744;DHT22;12844;52.110;5.548;2024-03-17T01:26:29;17.70;58.00
24744;DHT22;12844;52.110;5.548;2024-03-17T01:28:55;17.70;57.40
24744;DHT22;12844;52.110;5.548;2024-03-17T01:31:20;17.70;57.40
24744;DHT22;12844;52.110;5.548;2024-03-17T01:33:46;17.70;57.40
24744;DHT22;12844;52.110;5.548;2024-03-17T01:36:12;17.70;57.40
24744;DHT22;12844;52.110;5.548;2024-03-17T01:38:38;17.70;57.40
24744;DHT22;12844;52.110;5.548;2024-03-17T01:41:03;17.70;57.30
24744;DHT22;12844;52.110;5.548;2024-03-17T01:43:30;17.70;57.30
24744;DHT22;12844;52.110;5.548;2024-03-17T01:45:56;17.70;57.40
24744;DHT22;12844;52.110;5.548;2024-03-17T01:48:23;17.70;57.40
24744;DHT22;12844;52.110;5.548;2024-03-17T01:50:52;17.70;57.30
24744;DHT22;12844;52.110;5.548;2024-03-17T01:53:19;17.70;57.30
24744;DHT22;12844;52.110;5.548;2024-03-17T01:55:46;17.60;57.20
24744;DHT22;12844;52.110;5.548;2024-03-17T01:58:12;17.60;57.20
24744;DHT22;12844;52.110;5.548;2024-03-17T02:00:39;17.60;57.30
24744;DHT22;12844;52.110;5.548;2024-03-17T02:03:08;17.60;57.30
24744;DHT22;12844;52.110;5.548;2024-03-17T02:05:40;17.70;57.30
24744;DHT22;12844;52.110;5.548;2024-03-17T02:08:06;17.60;57.20
24744;DHT22;12844;52.110;5.548;2024-03-17T02:10:37;17.60;57.20
24744;DHT22;12844;52.110;5.548;2024-03-17T02:13:03;17.60;57.20
24744;DHT22;12844;52.110;5.548;2024-03-17T02:15:30;17.60;57.20
24744;DHT22;12844;52.110;5.548;2024-03-17T02:17:56;17.60;57.20
24744;DHT22;12844;52.110;5.548;2024-03-17T02:20:21;17.60;57.20
24744;DHT22;12844;52.110;5.548;2024-03-17T02:23:07;17.60;57.20
24744;DHT22;12844;52.110;5.548;2024-03-17T02:25:33;17.60;57.30
24744;DHT22;12844;52.110;5.548;2024-03-17T02:27:59;17.60;57.20
24744;DHT22;12844;52.110;5.548;2024-03-17T02:30:24;17.60;57.20
24744;DHT22;12844;52.110;5.548;2024-03-17T02:32:54;17.60;57.30
24744;DHT22;12844;52.110;5.548;2024-03-17T02:35:23;17.60;57.20
24744;DHT22;12844;52.110;5.548;2024-03-17T02:37:49;17.60;57.20
24744;DHT22;12844;52.110;5.548;2024-03-17T02:40:14;17.60;57.20
24744;DHT22;12844;52.110;5.548;2024-03-17T02:42:41;17.60;57.20
24744;DHT22;12844;52.110;5.548;2024-03-17T02:45:08;17.60;57.20
24744;DHT22;12844;52.110;5.548;2024-03-17T02:47:34;17.60;57.20
24744;DHT22;12844;52.110;5.548;2024-03-17T02:50:00;17.60;57.20
24744;DHT22;12844;52.110;5.548;2024-03-17T02:52:26;17.60;57.20
24744;DHT22;12844;52.110;5.548;2024-03-17T02:54:52;17.50;57.10
24744;DHT22;12844;52.110;5.548;2024-03-17T02:57:18;17.50;57.20
24744;DHT22;12844;52.110;5.548;2024-03-17T02:59:44;17.50;57.10
24744;DHT22;12844;52.110;5.548;2024-03-17T03:02:12;17.50;57.20
24744;DHT22;12844;52.110;5.548;2024-03-17T03:04:37;17.50;57.20
24744;DHT22;12844;52.110;5.548;2024-03-17T03:07:03;17.50;57.20
24744;DHT22;12844;52.110;5.548;2024-03-17T03:09:29;17.50;57.20
24744;DHT22;12844;52.110;5.548;2024-03-17T03:12:01;17.50;57.20
24744;DHT22;12844;52.110;5.548;2024-03-17T03:14:30;17.50;57.10
24744;DHT22;12844;52.110;5.548;2024-03-17T03:16:55;17.50;57.20
24744;DHT22;12844;52.110;5.548;2024-03-17T03:19:21;17.50;57.20
24744;DHT22;12844;52.110;5.548;2024-03-17T03:21:47;17.50;57.20
24744;DHT22;12844;52.110;5.548;2024-03-17T03:24:16;17.50;57.10
24744;DHT22;12844;52.110;5.548;2024-03-17T03:26:42;17.50;57.20
24744;DHT22;12844;52.110;5.548;2024-03-17T03:29:10;17.50;57.20
24744;DHT22;12844;52.110;5.548;2024-03-17T03:31:36;17.50;57.20
24744;DHT22;12844;52.110;5.548;2024-03-17T03:34:02;17.50;57.20
24744;DHT22;12844;52.110;5.548;2024-03-17T03:36:28;17.50;57.20
24744;DHT22;12844;52.110;5.548;2024-03-17T03:38:54;17.50;57.20
24744;DHT22;12844;52.110;5.548;2024-03-17T03:41:23;17.40;57.10
24744;DHT22;12844;52.110;5.548;2024-03-17T03:43:48;17.50;57.20
24744;DHT22;12844;52.110;5.548;2024-03-17T03:46:14;17.50;57.20
24744;DHT22;12844;52.110;5.548;2024-03-17T03:48:40;17.50;57.20
24744;DHT22;12844;52.110;5.548;2024-03-17T03:51:07;17.50;57.20
24744;DHT22;12844;52.110;5.548;2024-03-17T03:53:33;17.50;57.20
24744;DHT22;12844;52.110;5.548;2024-03-17T04:06:21;17.40;57.10
24744;DHT22;12844;52.110;5.548;2024-03-17T04:08:46;17.40;57.10
24744;DHT22;12844;52.110;5.548;2024-03-17T04:11:12;17.40;57.10
24744;DHT22;12844;52.110;5.548;2024-03-17T04:13:38;17.40;57.10
24744;DHT22;12844;52.110;5.548;2024-03-17T04:16:05;17.40;57.20
24744;DHT22;12844;52.110;5.548;2024-03-17T04:18:32;17.40;57.10
24744;DHT22;12844;52.110;5.548;2024-03-17T04:21:02;17.40;57.10
24744;DHT22;12844;52.110;5.548;2024-03-17T04:23:29;17.40;57.10
24744;DHT22;12844;52.110;5.548;2024-03-17T04:25:57;17.40;57.20
24744;DHT22;12844;52.110;5.548;2024-03-17T04:28:23;17.40;57.30
24744;DHT22;12844;52.110;5.548;2024-03-17T04:30:49;17.40;57.20
24744;DHT22;12844;52.110;5.548;2024-03-17T04:33:14;17.40;57.20
24744;DHT22;12844;52.110;5.548;2024-03-17T04:35:42;17.40;57.20
24744;DHT22;12844;52.110;5.548;2024-03-17T04:38:08;17.40;57.10
24744;DHT22;12844;52.110;5.548;2024-03-17T04:40:41;17.40;57.10
24744;DHT22;12844;52.110;5.548;2024-03-17T04:43:07;17.40;57.10
24744;DHT22;12844;52.110;5.548;2024-03-17T04:45:32;17.40;57.20
24744;DHT22;12844;52.110;5.548;2024-03-17T04:47:58;17.40;57.20
24744;DHT22;12844;52.110;5.548;2024-03-17T04:50:23;17.40;57.20
24744;DHT22;12844;52.110;5.548;2024-03-17T04:52:49;17.40;57.20
24744;DHT22;12844;52.110;5.548;2024-03-17T04:55:15;17.30;57.20
24744;DHT22;12844;52.110;5.548;2024-03-17T04:57:45;17.40;57.20
24744;DHT22;12844;52.110;5.548;2024-03-17T05:00:11;17.30;57.20
24744;DHT22;12844;52.110;5.548;2024-03-17T05:02:39;17.40;57.20
24744;DHT22;12844;52.110;5.548;2024-03-17T05:05:05;17.40;57.30
24744;DHT22;12844;52.110;5.548;2024-03-17T05:07:33;17.30;57.10
24744;DHT22;12844;52.110;5.548;2024-03-17T05:09:59;17.30;57.10
24744;DHT22;12844;52.110;5.548;2024-03-17T05:12:24;17.40;57.10
24744;DHT22;12844;52.110;5.548;2024-03-17T05:14:50;17.30;57.10
24744;DHT22;12844;52.110;5.548;2024-03-17T05:17:16;17.40;57.10
24744;DHT22;12844;52.110;5.548;2024-03-17T05:19:41;17.40;57.10
24744;DHT22;12844;52.110;5.548;2024-03-17T05:22:07;17.40;57.10
24744;DHT22;12844;52.110;5.548;2024-03-17T05:24:33;17.40;57.10
24744;DHT22;12844;52.110;5.548;2024-03-17T05:26:58;17.40;57.10
24744;DHT22;12844;52.110;5.548;2024-03-17T05:29:24;17.30;57.70
24744;DHT22;12844;52.110;5.548;2024-03-17T05:31:50;17.30;57.10
24744;DHT22;12844;52.110;5.548;2024-03-17T05:34:15;17.30;57.10
24744;DHT22;12844;52.110;5.548;2024-03-17T05:36:41;17.30;57.10
24744;DHT22;12844;52.110;5.548;2024-03-17T05:39:07;17.30;57.70
24744;DHT22;12844;52.110;5.548;2024-03-17T05:41:32;17.30;57.10
24744;DHT22;12844;52.110;5.548;2024-03-17T05:43:58;17.30;57.10
24744;DHT22;12844;52.110;5.548;2024-03-17T05:46:24;17.30;57.20
24744;DHT22;12844;52.110;5.548;2024-03-17T05:48:53;17.30;57.10
24744;DHT22;12844;52.110;5.548;2024-03-17T05:51:19;17.30;57.10
24744;DHT22;12844;52.110;5.548;2024-03-17T05:53:45;17.30;57.10
24744;DHT22;12844;52.110;5.548;2024-03-17T05:56:11;17.30;57.10
24744;DHT22;12844;52.110;5.548;2024-03-17T05:58:38;17.30;57.10
24744;DHT22;12844;52.110;5.548;2024-03-17T06:01:04;17.30;57.10
24744;DHT22;12844;52.110;5.548;2024-03-17T06:03:30;17.30;57.10
24744;DHT22;12844;52.110;5.548;2024-03-17T06:05:58;17.30;57.10
24744;DHT22;12844;52.110;5.548;2024-03-17T06:08:24;17.30;57.10
24744;DHT22;12844;52.110;5.548;2024-03-17T06:10:50;17.30;57.10
24744;DHT22;12844;52.110;5.548;2024-03-17T06:13:16;17.30;57.10
24744;DHT22;12844;52.110;5.548;2024-03-17T06:15:43;17.30;57.10
24744;DHT22;12844;52.110;5.548;2024-03-17T06:18:12;17.30;57.10
24744;DHT22;12844;52.110;5.548;2024-03-17T06:20:41;17.30;57.10
24744;DHT22;12844;52.110;5.548;2024-03-17T06:23:13;17.30;57.10
24744;DHT22;12844;52.110;5.548;2024-03-17T06:25:46;17.30;57.10
24744;DHT22;12844;52.110;5.548;2024-03-17T06:28:13;17.30;57.20
24744;DHT22;12844;52.110;5.548;2024-03-17T06:30:43;17.30;57.20
24744;DHT22;12844;52.110;5.548;2024-03-17T06:33:13;17.30;57.20
24744;DHT22;12844;52.110;5.548;2024-03-17T06:35:39;17.20;57.10
24744;DHT22;12844;52.110;5.548;2024-03-17T06:38:05;17.20;57.10
24744;DHT22;12844;52.110;5.548;2024-03-17T06:40:35;17.30;57.10
24744;DHT22;12844;52.110;5.548;2024-03-17T06:43:01;17.30;57.10
24744;DHT22;12844;52.110;5.548;2024-03-17T06:45:27;17.30;57.10
24744;DHT22;12844;52.110;5.548;2024-03-17T06:47:52;17.20;57.10
24744;DHT22;12844;52.110;5.548;2024-03-17T06:50:18;17.30;57.20
24744;DHT22;12844;52.110;5.548;2024-03-17T06:52:44;17.30;57.20
24744;DHT22;12844;52.110;5.548;2024-03-17T06:55:09;17.30;57.20
24744;DHT22;12844;52.110;5.548;2024-03-17T06:57:35;17.30;57.80
24744;DHT22;12844;52.110;5.548;2024-03-17T07:00:02;17.30;57.20
24744;DHT22;12844;52.110;5.548;2024-03-17T07:02:31;17.30;57.20
24744;DHT22;12844;52.110;5.548;2024-03-17T07:04:57;17.30;57.20
24744;DHT22;12844;52.110;5.548;2024-03-17T07:07:23;17.30;57.20
24744;DHT22;12844;52.110;5.548;2024-03-17T07:09:48;17.30;57.20
24744;DHT22;12844;52.110;5.548;2024-03-17T07:12:14;17.30;57.20
24744;DHT22;12844;52.110;5.548;2024-03-17T07:14:40;17.30;57.20
24744;DHT22;12844;52.110;5.548;2024-03-17T07:17:05;17.30;57.10
24744;DHT22;12844;52.110;5.548;2024-03-17T07:19:32;17.30;57.10
24744;DHT22;12844;52.110;5.548;2024-03-17T07:21:58;17.30;57.10
24744;DHT22;12844;52.110;5.548;2024-03-17T07:24:24;17.30;57.20
24744;DHT22;12844;52.110;5.548;2024-03-17T07:26:50;17.30;57.10
24744;DHT22;12844;52.110;5.548;2024-03-17T07:29:16;17.30;57.10
24744;DHT22;12844;52.110;5.548;2024-03-17T07:31:42;17.30;57.20
24744;DHT22;12844;52.110;5.548;2024-03-17T07:34:08;17.40;57.10
24744;DHT22;12844;52.110;5.548;2024-03-17T07:36:34;17.40;57.10
24744;DHT22;12844;52.110;5.548;2024-03-17T07:38:59;17.30;57.70
24744;DHT22;12844;52.110;5.548;2024-03-17T07:41:25;17.30;57.00
24744;DHT22;12844;52.110;5.548;2024-03-17T07:43:51;17.30;57.00
24744;DHT22;12844;52.110;5.548;2024-03-17T07:46:16;17.30;57.00
24744;DHT22;12844;52.110;5.548;2024-03-17T07:48:43;17.40;57.10
24744;DHT22;12844;52.110;5.548;2024-03-17T07:51:11;17.40;57.80
24744;DHT22;12844;52.110;5.548;2024-03-17T07:53:38;17.40;57.10
24744;DHT22;12844;52.110;5.548;2024-03-17T07:56:11;17.40;57.20
24744;DHT22;12844;52.110;5.548;2024-03-17T07:58:41;17.40;57.90
24744;DHT22;12844;52.110;5.548;2024-03-17T08:01:08;17.40;57.20
24744;DHT22;12844;52.110;5.548;2024-03-17T08:03:36;17.40;57.20
24744;DHT22;12844;52.110;5.548;2024-03-17T08:06:04;17.40;57.20
24744;DHT22;12844;52.110;5.548;2024-03-17T08:08:30;17.40;57.10
24744;DHT22;12844;52.110;5.548;2024-03-17T08:10:56;17.40;57.70
24744;DHT22;12844;52.110;5.548;2024-03-17T08:13:22;17.40;57.00
24744;DHT22;12844;52.110;5.548;2024-03-17T08:15:56;17.40;57.00
24744;DHT22;12844;52.110;5.548;2024-03-17T08:18:22;17.50;56.80
24744;DHT22;12844;52.110;5.548;2024-03-17T08:20:47;17.40;57.40
24744;DHT22;12844;52.110;5.548;2024-03-17T08:23:13;17.40;56.90
24744;DHT22;12844;52.110;5.548;2024-03-17T08:25:39;17.40;57.00
24744;DHT22;12844;52.110;5.548;2024-03-17T08:28:06;17.40;57.00
24744;DHT22;12844;52.110;5.548;2024-03-17T08:30:32;17.40;57.00
24744;DHT22;12844;52.110;5.548;2024-03-17T08:32:58;17.40;57.00
24744;DHT22;12844;52.110;5.548;2024-03-17T08:35:24;17.40;57.00
24744;DHT22;12844;52.110;5.548;2024-03-17T08:37:50;17.40;57.00
24744;DHT22;12844;52.110;5.548;2024-03-17T08:40:25;17.40;57.00
24744;DHT22;12844;52.110;5.548;2024-03-17T08:42:51;17.40;57.00
24744;DHT22;12844;52.110;5.548;2024-03-17T08:45:16;17.40;57.00
24744;DHT22;12844;52.110;5.548;2024-03-17T08:47:42;17.40;57.00
24744;DHT22;12844;52.110;5.548;2024-03-17T08:50:08;17.40;57.00
24744;DHT22;12844;52.110;5.548;2024-03-17T08:52:35;17.40;57.10
24744;DHT22;12844;52.110;5.548;2024-03-17T08:55:00;17.30;57.00
24744;DHT22;12844;52.110;5.548;2024-03-17T08:57:29;17.30;57.00
24744;DHT22;12844;52.110;5.548;2024-03-17T08:59:55;17.40;57.00
24744;DHT22;12844;52.110;5.548;2024-03-17T09:02:20;17.40;57.70
24744;DHT22;12844;52.110;5.548;2024-03-17T09:04:49;17.30;56.90
24744;DHT22;12844;52.110;5.548;2024-03-17T09:07:14;17.40;57.00
24744;DHT22;12844;52.110;5.548;2024-03-17T09:09:41;17.30;57.00
24744;DHT22;12844;52.110;5.548;2024-03-17T09:12:07;17.30;57.00
24744;DHT22;12844;52.110;5.548;2024-03-17T09:14:33;17.30;57.00
24744;DHT22;12844;52.110;5.548;2024-03-17T09:16:59;17.30;57.00
24744;DHT22;12844;52.110;5.548;2024-03-17T09:19:24;17.40;57.00
24744;DHT22;12844;52.110;5.548;2024-03-17T09:21:50;17.40;57.10
24744;DHT22;12844;52.110;5.548;2024-03-17T09:24:16;17.40;57.00
24744;DHT22;12844;52.110;5.548;2024-03-17T09:26:41;17.40;57.00
24744;DHT22;12844;52.110;5.548;2024-03-17T09:29:07;17.30;57.00
24744;DHT22;12844;52.110;5.548;2024-03-17T09:31:32;17.30;57.00
24744;DHT22;12844;52.110;5.548;2024-03-17T09:34:01;17.40;57.00
24744;DHT22;12844;52.110;5.548;2024-03-17T09:36:27;17.40;57.00
24744;DHT22;12844;52.110;5.548;2024-03-17T09:38:52;17.40;57.00
24744;DHT22;12844;52.110;5.548;2024-03-17T09:41:25;17.40;56.90
24744;DHT22;12844;52.110;5.548;2024-03-17T09:43:56;17.40;57.00
24744;DHT22;12844;52.110;5.548;2024-03-17T09:46:26;17.40;57.00
24744;DHT22;12844;52.110;5.548;2024-03-17T09:48:55;17.40;57.00
24744;DHT22;12844;52.110;5.548;2024-03-17T09:51:24;17.40;57.00
24744;DHT22;12844;52.110;5.548;2024-03-17T09:53:51;17.40;57.00
24744;DHT22;12844;52.110;5.548;2024-03-17T09:56:21;17.30;57.00
24744;DHT22;12844;52.110;5.548;2024-03-17T09:58:48;17.40;56.90
24744;DHT22;12844;52.110;5.548;2024-03-17T10:01:14;17.40;56.80
24744;DHT22;12844;52.110;5.548;2024-03-17T10:03:46;17.50;56.90
24744;DHT22;12844;52.110;5.548;2024-03-17T10:06:31;17.50;56.80
24744;DHT22;12844;52.110;5.548;2024-03-17T10:09:00;17.50;56.80
24744;DHT22;12844;52.110;5.548;2024-03-17T10:11:34;17.50;56.80
24744;DHT22;12844;52.110;5.548;2024-03-17T10:14:04;17.50;56.80
24744;DHT22;12844;52.110;5.548;2024-03-17T10:16:31;17.60;56.80
24744;DHT22;12844;52.110;5.548;2024-03-17T10:21:43;17.60;56.80
24744;DHT22;12844;52.110;5.548;2024-03-17T10:24:22;17.60;56.80
24744;DHT22;12844;52.110;5.548;2024-03-17T10:26:57;17.60;56.80
24744;DHT22;12844;52.110;5.548;2024-03-17T13:40:07;17.50;57.10
24744;DHT22;12844;52.110;5.548;2024-03-17T13:42:35;17.50;57.10
24744;DHT22;12844;52.110;5.548;2024-03-17T13:45:01;17.50;57.10
24744;DHT22;12844;52.110;5.548;2024-03-17T13:47:27;17.50;57.00
24744;DHT22;12844;52.110;5.548;2024-03-17T13:49:53;17.60;57.10
24744;DHT22;12844;52.110;5.548;2024-03-17T13:52:18;17.50;57.70
24744;DHT22;12844;52.110;5.548;2024-03-17T13:54:45;17.60;57.10
24744;DHT22;12844;52.110;5.548;2024-03-17T13:57:10;17.50;57.00
24744;DHT22;12844;52.110;5.548;2024-03-17T13:59:37;17.50;57.00
24744;DHT22;12844;52.110;5.548;2024-03-17T14:02:03;17.60;57.10
24744;DHT22;12844;52.110;5.548;2024-03-17T14:04:30;17.50;57.00
24744;DHT22;12844;52.110;5.548;2024-03-17T14:06:56;17.60;57.10
24744;DHT22;12844;52.110;5.548;2024-03-17T14:09:21;17.50;57.00
24744;DHT22;12844;52.110;5.548;2024-03-17T14:11:48;17.60;57.10
24744;DHT22;12844;52.110;5.548;2024-03-17T14:14:14;17.60;57.10
24744;DHT22;12844;52.110;5.548;2024-03-17T14:16:40;17.50;57.00
24744;DHT22;12844;52.110;5.548;2024-03-17T14:19:08;17.60;57.00
24744;DHT22;12844;52.110;5.548;2024-03-17T14:21:33;17.50;57.00
24744;DHT22;12844;52.110;5.548;2024-03-17T14:23:59;17.60;57.10
24744;DHT22;12844;52.110;5.548;2024-03-17T14:26:26;17.50;57.00
24744;DHT22;12844;52.110;5.548;2024-03-17T14:28:52;17.50;57.00
24744;DHT22;12844;52.110;5.548;2024-03-17T14:31:20;17.50;57.00
24744;DHT22;12844;52.110;5.548;2024-03-17T14:33:45;17.50;57.00
24744;DHT22;12844;52.110;5.548;2024-03-17T14:36:11;17.60;57.10
24744;DHT22;12844;52.110;5.548;2024-03-17T14:38:37;17.60;57.10
24744;DHT22;12844;52.110;5.548;2024-03-17T14:41:02;17.60;57.10
24744;DHT22;12844;52.110;5.548;2024-03-17T14:43:30;17.60;57.10
24744;DHT22;12844;52.110;5.548;2024-03-17T14:45:56;17.50;57.00
24744;DHT22;12844;52.110;5.548;2024-03-17T14:48:22;17.60;57.10
24744;DHT22;12844;52.110;5.548;2024-03-17T14:50:48;17.60;57.10
24744;DHT22;12844;52.110;5.548;2024-03-17T14:53:14;17.60;57.10
24744;DHT22;12844;52.110;5.548;2024-03-17T14:55:40;17.60;57.00
24744;DHT22;12844;52.110;5.548;2024-03-17T14:58:08;17.60;57.10
24744;DHT22;12844;52.110;5.548;2024-03-17T15:00:35;17.60;57.70
24744;DHT22;12844;52.110;5.548;2024-03-17T15:03:01;17.60;57.00
24744;DHT22;12844;52.110;5.548;2024-03-17T15:05:26;17.60;57.10
24744;DHT22;12844;52.110;5.548;2024-03-17T15:07:52;17.60;57.10
24744;DHT22;12844;52.110;5.548;2024-03-17T15:10:18;17.60;57.10
24744;DHT22;12844;52.110;5.548;2024-03-17T15:12:49;17.60;57.10
24744;DHT22;12844;52.110;5.548;2024-03-17T15:15:16;17.60;57.00
24744;DHT22;12844;52.110;5.548;2024-03-17T15:17:42;17.60;57.00
24744;DHT22;12844;52.110;5.548;2024-03-17T15:20:10;17.60;57.00
24744;DHT22;12844;52.110;5.548;2024-03-17T15:22:45;17.60;57.10
24744;DHT22;12844;52.110;5.548;2024-03-17T15:25:12;17.60;57.10
24744;DHT22;12844;52.110;5.548;2024-03-17T15:27:42;17.60;57.20
24744;DHT22;12844;52.110;5.548;2024-03-17T15:30:17;17.60;57.20
24744;DHT22;12844;52.110;5.548;2024-03-17T15:32:51;17.60;57.20
24744;DHT22;12844;52.110;5.548;2024-03-17T15:35:23;17.60;57.20
24744;DHT22;12844;52.110;5.548;2024-03-17T15:37:49;17.60;57.20
24744;DHT22;12844;52.110;5.548;2024-03-17T15:40:15;17.60;57.20
24744;DHT22;12844;52.110;5.548;2024-03-17T15:42:47;17.60;57.20
24744;DHT22;12844;52.110;5.548;2024-03-17T15:45:15;17.60;57.20
24744;DHT22;12844;52.110;5.548;2024-03-17T15:47:41;17.60;57.20
24744;DHT22;12844;52.110;5.548;2024-03-17T15:50:07;17.60;57.20
24744;DHT22;12844;52.110;5.548;2024-03-17T15:52:33;17.60;57.20
24744;DHT22;12844;52.110;5.548;2024-03-17T15:55:01;17.60;57.20
24744;DHT22;12844;52.110;5.548;2024-03-17T15:57:29;17.60;57.20
24744;DHT22;12844;52.110;5.548;2024-03-17T15:59:54;17.60;57.20
24744;DHT22;12844;52.110;5.548;2024-03-17T16:02:20;17.60;57.20
24744;DHT22;12844;52.110;5.548;2024-03-17T16:04:49;17.60;57.10
24744;DHT22;12844;52.110;5.548;2024-03-17T16:07:17;17.60;57.10
24744;DHT22;12844;52.110;5.548;2024-03-17T16:09:43;17.60;57.20
24744;DHT22;12844;52.110;5.548;2024-03-17T16:12:09;17.60;57.20
24744;DHT22;12844;52.110;5.548;2024-03-17T16:14:35;17.60;57.20
24744;DHT22;12844;52.110;5.548;2024-03-17T16:17:04;17.60;57.20
24744;DHT22;12844;52.110;5.548;2024-03-17T16:19:34;17.60;57.20
24744;DHT22;12844;52.110;5.548;2024-03-17T16:22:02;17.60;57.20
24744;DHT22;12844;52.110;5.548;2024-03-17T16:24:32;17.60;57.20
24744;DHT22;12844;52.110;5.548;2024-03-17T16:26:58;17.60;57.20
24744;DHT22;12844;52.110;5.548;2024-03-17T16:29:24;17.60;57.30
24744;DHT22;12844;52.110;5.548;2024-03-17T16:31:50;17.60;57.30
24744;DHT22;12844;52.110;5.548;2024-03-17T16:34:15;17.60;57.30
24744;DHT22;12844;52.110;5.548;2024-03-17T16:36:43;17.50;57.20
24744;DHT22;12844;52.110;5.548;2024-03-17T16:39:12;17.50;57.30
24744;DHT22;12844;52.110;5.548;2024-03-17T16:41:40;17.50;57.30
24744;DHT22;12844;52.110;5.548;2024-03-17T16:44:16;17.50;57.30
24744;DHT22;12844;52.110;5.548;2024-03-17T16:49:19;17.50;57.30
24744;DHT22;12844;52.110;5.548;2024-03-17T16:51:45;17.50;57.30
24744;DHT22;12844;52.110;5.548;2024-03-17T16:54:11;17.50;57.30
24744;DHT22;12844;52.110;5.548;2024-03-17T16:56:38;17.50;57.30
24744;DHT22;12844;52.110;5.548;2024-03-17T16:59:04;17.50;57.30
24744;DHT22;12844;52.110;5.548;2024-03-17T17:01:32;17.50;57.40
24744;DHT22;12844;52.110;5.548;2024-03-17T17:03:58;17.50;57.40
24744;DHT22;12844;52.110;5.548;2024-03-17T17:06:23;17.50;57.40
24744;DHT22;12844;52.110;5.548;2024-03-17T17:08:49;17.50;57.30
24744;DHT22;12844;52.110;5.548;2024-03-17T17:11:16;17.50;57.40
24744;DHT22;12844;52.110;5.548;2024-03-17T17:13:43;17.50;57.40
24744;DHT22;12844;52.110;5.548;2024-03-17T17:16:09;17.50;57.40
24744;DHT22;12844;52.110;5.548;2024-03-17T17:19:04;17.50;57.40
24744;DHT22;12844;52.110;5.548;2024-03-17T17:21:30;17.50;57.40
24744;DHT22;12844;52.110;5.548;2024-03-17T17:23:56;17.50;57.50
24744;DHT22;12844;52.110;5.548;2024-03-17T17:26:24;17.50;57.50
24744;DHT22;12844;52.110;5.548;2024-03-17T17:28:54;17.50;57.50
24744;DHT22;12844;52.110;5.548;2024-03-17T17:31:24;17.50;57.50
24744;DHT22;12844;52.110;5.548;2024-03-17T17:33:50;17.40;57.50
24744;DHT22;12844;52.110;5.548;2024-03-17T17:36:16;17.50;57.50
24744;DHT22;12844;52.110;5.548;2024-03-17T17:38:42;17.40;57.50
24744;DHT22;12844;52.110;5.548;2024-03-17T17:41:07;17.50;57.50
24744;DHT22;12844;52.110;5.548;2024-03-17T17:43:46;17.40;57.50
24744;DHT22;12844;52.110;5.548;2024-03-17T17:46:16;17.40;57.50
24744;DHT22;12844;52.110;5.548;2024-03-17T17:48:43;17.40;58.10
24744;DHT22;12844;52.110;5.548;2024-03-17T17:51:17;17.40;57.50
24744;DHT22;12844;52.110;5.548;2024-03-17T17:53:44;17.50;57.60
24744;DHT22;12844;52.110;5.548;2024-03-17T17:56:12;17.40;57.50
24744;DHT22;12844;52.110;5.548;2024-03-17T17:58:40;17.40;57.60
24744;DHT22;12844;52.110;5.548;2024-03-17T18:01:06;17.40;57.60
24744;DHT22;12844;52.110;5.548;2024-03-17T18:03:32;17.40;57.60
24744;DHT22;12844;52.110;5.548;2024-03-17T18:05:59;17.40;57.60
24744;DHT22;12844;52.110;5.548;2024-03-17T18:08:26;17.40;57.60
24744;DHT22;12844;52.110;5.548;2024-03-17T18:10:52;17.40;57.60
24744;DHT22;12844;52.110;5.548;2024-03-17T18:13:19;17.40;57.60
24744;DHT22;12844;52.110;5.548;2024-03-17T18:15:45;17.40;57.70
24744;DHT22;12844;52.110;5.548;2024-03-17T18:18:16;17.40;57.70
24744;DHT22;12844;52.110;5.548;2024-03-17T18:20:57;17.40;57.70
24744;DHT22;12844;52.110;5.548;2024-03-17T18:23:24;17.40;57.70
24744;DHT22;12844;52.110;5.548;2024-03-17T18:25:51;17.40;58.30
24744;DHT22;12844;52.110;5.548;2024-03-17T18:28:18;17.40;57.70
24744;DHT22;12844;52.110;5.548;2024-03-17T18:30:43;17.40;57.70
24744;DHT22;12844;52.110;5.548;2024-03-17T18:33:11;17.40;57.60
24744;DHT22;12844;52.110;5.548;2024-03-17T18:35:48;17.40;57.60
24744;DHT22;12844;52.110;5.548;2024-03-17T18:38:14;17.40;57.60
24744;DHT22;12844;52.110;5.548;2024-03-17T18:40:40;17.40;57.60
24744;DHT22;12844;52.110;5.548;2024-03-17T18:43:06;17.40;57.70
24744;DHT22;12844;52.110;5.548;2024-03-17T18:45:33;17.40;57.60
24744;DHT22;12844;52.110;5.548;2024-03-17T18:47:58;17.40;57.60
24744;DHT22;12844;52.110;5.548;2024-03-17T18:50:24;17.40;57.70
24744;DHT22;12844;52.110;5.548;2024-03-17T18:52:50;17.40;57.70
24744;DHT22;12844;52.110;5.548;2024-03-17T18:55:16;17.40;57.60